Sedona, Arizona
Current Conditions -  °F | °C
As of 5:15 PM on Monday 24 Nov 2014 (Local Time) from KSEZ Reporting Station
Clear Clear  
Wind Chill: 52°   Ceiling: Unl
Heat Index: 52°   Visibility: 10mi
Dew Point:   Wind: 12mph
Humidity: 13%   Direction: 40°NE
Pressure: 30.25"   Gusts: 22mph
Location:  34.87°N, 111.76°W
Report Text: KSEZ 250015Z AUTO 04010G19KT 010V070 10SM CLR 11/M17 A3025 RMK AO2
Loading
Personal Weather Stations






























Interactive Weather Map New forecast layout! Learn more

10-Day Weather Forecast

Advertisements
Track Severe Weather on mobile